sensor_id;sensor_type;location;lat;lon;timestamp;pressure;altitude;pressure_sealevel;temperature;humidity
35551;BME280;21655;46.056;13.616;2022-09-01T00:00:22;100118.41;;;22.51;80.57
35551;BME280;21655;46.056;13.616;2022-09-01T00:02:54;100117.81;;;22.49;80.59
35551;BME280;21655;46.056;13.616;2022-09-01T00:05:20;100116.47;;;22.52;78.85
35551;BME280;21655;46.056;13.616;2022-09-01T00:07:46;100111.63;;;22.52;79.12
35551;BME280;21655;46.056;13.616;2022-09-01T00:10:13;100107.69;;;22.53;78.26
35551;BME280;21655;46.056;13.616;2022-09-01T00:12:39;100097.44;;;22.47;78.07
35551;BME280;21655;46.056;13.616;2022-09-01T00:15:07;100099.50;;;22.52;77.07
35551;BME280;21655;46.056;13.616;2022-09-01T00:17:33;100101.19;;;22.53;77.04
35551;BME280;21655;46.056;13.616;2022-09-01T00:19:58;100102.91;;;22.54;76.42
35551;BME280;21655;46.056;13.616;2022-09-01T00:22:24;100102.03;;;22.53;75.78
35551;BME280;21655;46.056;13.616;2022-09-01T00:24:50;100079.19;;;22.55;74.68
35551;BME280;21655;46.056;13.616;2022-09-01T00:27:16;100086.19;;;22.52;75.76
35551;BME280;21655;46.056;13.616;2022-09-01T00:29:41;100096.91;;;22.50;76.35
35551;BME280;21655;46.056;13.616;2022-09-01T00:32:07;100081.09;;;22.49;74.71
35551;BME280;21655;46.056;13.616;2022-09-01T00:34:32;100087.84;;;22.48;75.29
35551;BME280;21655;46.056;13.616;2022-09-01T00:36:58;100083.28;;;22.42;77.00
35551;BME280;21655;46.056;13.616;2022-09-01T00:39:23;100084.38;;;22.41;76.48
35551;BME280;21655;46.056;13.616;2022-09-01T00:41:49;100084.88;;;22.38;75.95
35551;BME280;21655;46.056;13.616;2022-09-01T00:44:18;100091.03;;;22.35;75.92
35551;BME280;21655;46.056;13.616;2022-09-01T00:46:49;100082.22;;;22.32;76.83
35551;BME280;21655;46.056;13.616;2022-09-01T00:49:18;100085.88;;;22.27;78.23
35551;BME280;21655;46.056;13.616;2022-09-01T00:51:51;100081.59;;;22.25;78.03
35551;BME280;21655;46.056;13.616;2022-09-01T00:54:21;100095.13;;;22.23;78.43
35551;BME280;21655;46.056;13.616;2022-09-01T00:56:48;100099.91;;;22.22;78.86
35551;BME280;21655;46.056;13.616;2022-09-01T00:59:15;100097.03;;;22.17;78.39
35551;BME280;21655;46.056;13.616;2022-09-01T01:01:42;100103.72;;;22.11;79.34
35551;BME280;21655;46.056;13.616;2022-09-01T01:04:08;100092.50;;;22.16;78.76
35551;BME280;21655;46.056;13.616;2022-09-01T01:06:59;100085.38;;;22.14;77.87
35551;BME280;21655;46.056;13.616;2022-09-01T01:09:31;100094.97;;;22.13;78.26
35551;BME280;21655;46.056;13.616;2022-09-01T01:11:58;100092.72;;;22.15;77.82
35551;BME280;21655;46.056;13.616;2022-09-01T01:14:26;100095.84;;;22.13;78.46
35551;BME280;21655;46.056;13.616;2022-09-01T01:16:58;100093.00;;;22.13;78.00
35551;BME280;21655;46.056;13.616;2022-09-01T01:22:49;100100.81;;;22.06;79.07
35551;BME280;21655;46.056;13.616;2022-09-01T01:25:36;100106.72;;;22.05;78.81
35551;BME280;21655;46.056;13.616;2022-09-01T01:28:19;100095.09;;;22.01;79.23
35551;BME280;21655;46.056;13.616;2022-09-01T01:30:49;100101.28;;;21.98;79.52
35551;BME280;21655;46.056;13.616;2022-09-01T01:33:17;100107.44;;;21.95;79.76
35551;BME280;21655;46.056;13.616;2022-09-01T01:35:43;100115.91;;;21.95;80.01
35551;BME280;21655;46.056;13.616;2022-09-01T01:38:09;100099.22;;;21.94;79.93
35551;BME280;21655;46.056;13.616;2022-09-01T01:40:36;100115.22;;;21.88;81.14
35551;BME280;21655;46.056;13.616;2022-09-01T01:43:03;100105.56;;;21.84;81.18
35551;BME280;21655;46.056;13.616;2022-09-01T01:45:29;100088.09;;;21.87;80.39
35551;BME280;21655;46.056;13.616;2022-09-01T01:47:55;100100.00;;;21.89;80.09
35551;BME280;21655;46.056;13.616;2022-09-01T01:50:25;100114.63;;;21.86;80.76
35551;BME280;21655;46.056;13.616;2022-09-01T01:52:51;100113.69;;;21.81;80.98
35551;BME280;21655;46.056;13.616;2022-09-01T01:55:19;100112.88;;;21.80;81.39
35551;BME280;21655;46.056;13.616;2022-09-01T01:57:46;100098.28;;;21.88;79.76
35551;BME280;21655;46.056;13.616;2022-09-01T02:00:18;100107.28;;;21.85;79.69
35551;BME280;21655;46.056;13.616;2022-09-01T02:02:48;100097.78;;;21.91;78.68
35551;BME280;21655;46.056;13.616;2022-09-01T02:05:26;100082.09;;;22.00;76.37
35551;BME280;21655;46.056;13.616;2022-09-01T02:07:59;100084.38;;;22.03;77.70
35551;BME280;21655;46.056;13.616;2022-09-01T02:10:28;100089.97;;;21.98;77.38
35551;BME280;21655;46.056;13.616;2022-09-01T02:12:56;100087.09;;;21.93;77.74
35551;BME280;21655;46.056;13.616;2022-09-01T02:15:27;100086.63;;;22.01;77.09
35551;BME280;21655;46.056;13.616;2022-09-01T02:17:53;100090.81;;;21.99;77.15
35551;BME280;21655;46.056;13.616;2022-09-01T02:20:26;100092.28;;;22.01;76.54
35551;BME280;21655;46.056;13.616;2022-09-01T02:22:57;100097.09;;;22.01;76.30
35551;BME280;21655;46.056;13.616;2022-09-01T02:25:36;100094.25;;;22.01;76.53
35551;BME280;21655;46.056;13.616;2022-09-01T02:28:02;100101.03;;;22.00;77.03
35551;BME280;21655;46.056;13.616;2022-09-01T02:30:29;100091.44;;;22.01;76.52
35551;BME280;21655;46.056;13.616;2022-09-01T02:32:58;100105.56;;;22.01;76.59
35551;BME280;21655;46.056;13.616;2022-09-01T02:35:24;100101.03;;;22.00;76.54
35551;BME280;21655;46.056;13.616;2022-09-01T02:37:59;100098.19;;;22.00;76.46
35551;BME280;21655;46.056;13.616;2022-09-01T02:40:26;100095.63;;;21.98;76.25
35551;BME280;21655;46.056;13.616;2022-09-01T02:42:55;100101.63;;;22.02;75.96
35551;BME280;21655;46.056;13.616;2022-09-01T02:45:21;100094.31;;;22.06;75.08
35551;BME280;21655;46.056;13.616;2022-09-01T02:47:49;100088.47;;;22.12;74.29
35551;BME280;21655;46.056;13.616;2022-09-01T02:50:16;100097.22;;;22.11;74.89
35551;BME280;21655;46.056;13.616;2022-09-01T02:52:46;100092.44;;;22.11;74.17
35551;BME280;21655;46.056;13.616;2022-09-01T02:55:17;100093.00;;;22.13;74.46
35551;BME280;21655;46.056;13.616;2022-09-01T02:57:45;100087.09;;;22.15;73.55
35551;BME280;21655;46.056;13.616;2022-09-01T03:00:13;100077.19;;;22.12;74.66
35551;BME280;21655;46.056;13.616;2022-09-01T03:02:51;100064.44;;;22.10;73.80
35551;BME280;21655;46.056;13.616;2022-09-01T03:05:20;100067.59;;;22.13;73.92
35551;BME280;21655;46.056;13.616;2022-09-01T03:07:56;100067.25;;;22.10;73.74
35551;BME280;21655;46.056;13.616;2022-09-01T03:10:30;100055.38;;;22.08;73.58
35551;BME280;21655;46.056;13.616;2022-09-01T03:13:05;100069.53;;;22.13;73.10
35551;BME280;21655;46.056;13.616;2022-09-01T03:15:33;100051.16;;;22.10;72.73
35551;BME280;21655;46.056;13.616;2022-09-01T03:18:02;100060.22;;;22.12;72.80
35551;BME280;21655;46.056;13.616;2022-09-01T03:20:28;100061.25;;;22.06;73.83
35551;BME280;21655;46.056;13.616;2022-09-01T03:22:55;100044.72;;;22.15;71.09
35551;BME280;21655;46.056;13.616;2022-09-01T03:25:23;100050.16;;;22.21;71.24
35551;BME280;21655;46.056;13.616;2022-09-01T03:27:50;100038.56;;;22.18;72.04
35551;BME280;21655;46.056;13.616;2022-09-01T03:30:17;100047.28;;;22.16;71.80
35551;BME280;21655;46.056;13.616;2022-09-01T03:32:42;100044.66;;;22.10;72.56
35551;BME280;21655;46.056;13.616;2022-09-01T03:35:09;100036.97;;;22.05;72.29
35551;BME280;21655;46.056;13.616;2022-09-01T03:37:36;100034.13;;;22.05;73.23
35551;BME280;21655;46.056;13.616;2022-09-01T03:40:05;100030.34;;;21.95;74.29
35551;BME280;21655;46.056;13.616;2022-09-01T03:42:31;100031.19;;;21.95;73.67
35551;BME280;21655;46.056;13.616;2022-09-01T03:44:56;100023.44;;;21.86;74.73
35551;BME280;21655;46.056;13.616;2022-09-01T03:47:23;100024.88;;;21.88;73.46
35551;BME280;21655;46.056;13.616;2022-09-01T03:49:49;100022.63;;;21.90;73.65
35551;BME280;21655;46.056;13.616;2022-09-01T03:52:16;100025.22;;;21.92;73.61
35551;BME280;21655;46.056;13.616;2022-09-01T03:54:42;100031.03;;;21.85;74.48
35551;BME280;21655;46.056;13.616;2022-09-01T03:57:09;100033.22;;;21.78;74.86
35551;BME280;21655;46.056;13.616;2022-09-01T03:59:36;100022.84;;;21.84;73.89
35551;BME280;21655;46.056;13.616;2022-09-01T04:02:05;100025.41;;;21.85;74.28
35551;BME280;21655;46.056;13.616;2022-09-01T04:04:31;100026.00;;;21.87;73.63
35551;BME280;21655;46.056;13.616;2022-09-01T04:06:57;100040.50;;;21.96;72.71
35551;BME280;21655;46.056;13.616;2022-09-01T04:09:24;100037.69;;;21.96;73.09
35551;BME280;21655;46.056;13.616;2022-09-01T04:11:50;100036.84;;;21.95;72.82
35551;BME280;21655;46.056;13.616;2022-09-01T04:14:17;100030.53;;;21.88;74.56
35551;BME280;21655;46.056;13.616;2022-09-01T04:16:43;100035.75;;;21.80;75.65
35551;BME280;21655;46.056;13.616;2022-09-01T04:19:27;100024.56;;;21.85;73.86
35551;BME280;21655;46.056;13.616;2022-09-01T04:21:57;100029.69;;;21.88;73.55
35551;BME280;21655;46.056;13.616;2022-09-01T04:24:29;100036.50;;;21.92;72.88
35551;BME280;21655;46.056;13.616;2022-09-01T04:26:57;100022.72;;;21.95;72.39
35551;BME280;21655;46.056;13.616;2022-09-01T04:29:25;100012.03;;;21.97;71.45
35551;BME280;21655;46.056;13.616;2022-09-01T04:32:02;100020.50;;;21.97;72.05
35551;BME280;21655;46.056;13.616;2022-09-01T04:34:31;100016.78;;;21.97;72.58
35551;BME280;21655;46.056;13.616;2022-09-01T04:37:12;100022.97;;;21.94;72.56
35551;BME280;21655;46.056;13.616;2022-09-01T04:39:39;100030.34;;;21.95;72.46
35551;BME280;21655;46.056;13.616;2022-09-01T04:42:12;100021.59;;;21.96;72.53
35551;BME280;21655;46.056;13.616;2022-09-01T04:44:38;100037.97;;;21.94;73.16
35551;BME280;21655;46.056;13.616;2022-09-01T04:47:04;100022.91;;;21.89;73.63
35551;BME280;21655;46.056;13.616;2022-09-01T04:49:35;100027.09;;;21.86;73.84
35551;BME280;21655;46.056;13.616;2022-09-01T04:52:02;100012.41;;;21.84;74.22
35551;BME280;21655;46.056;13.616;2022-09-01T04:54:28;100020.28;;;21.82;75.06
35551;BME280;21655;46.056;13.616;2022-09-01T04:56:54;100026.50;;;21.84;73.20
35551;BME280;21655;46.056;13.616;2022-09-01T04:59:22;100029.09;;;21.86;75.18
35551;BME280;21655;46.056;13.616;2022-09-01T05:01:49;100013.53;;;21.83;74.11
35551;BME280;21655;46.056;13.616;2022-09-01T05:04:18;100012.41;;;21.84;74.16
35551;BME280;21655;46.056;13.616;2022-09-01T05:06:52;100009.97;;;21.93;72.64
35551;BME280;21655;46.056;13.616;2022-09-01T05:09:24;100011.16;;;21.97;74.00
35551;BME280;21655;46.056;13.616;2022-09-01T05:11:50;100007.50;;;21.96;72.08
35551;BME280;21655;46.056;13.616;2022-09-01T05:14:16;100010.13;;;22.03;71.17
35551;BME280;21655;46.056;13.616;2022-09-01T05:16:45;100023.13;;;22.04;71.99
35551;BME280;21655;46.056;13.616;2022-09-01T05:19:11;100027.66;;;22.05;71.35
35551;BME280;21655;46.056;13.616;2022-09-01T05:21:40;100029.75;;;22.14;72.29
35551;BME280;21655;46.056;13.616;2022-09-01T05:24:11;100030.47;;;22.05;73.59
35551;BME280;21655;46.056;13.616;2022-09-01T05:26:37;100027.13;;;22.08;73.06
35551;BME280;21655;46.056;13.616;2022-09-01T05:29:06;100021.88;;;22.16;72.64
35551;BME280;21655;46.056;13.616;2022-09-01T05:31:42;100022.94;;;22.10;74.02
35551;BME280;21655;46.056;13.616;2022-09-01T05:34:08;100027.75;;;22.15;73.96
35551;BME280;21655;46.056;13.616;2022-09-01T05:36:36;100034.91;;;22.22;74.61
35551;BME280;21655;46.056;13.616;2022-09-01T05:39:04;100028.69;;;22.20;73.68
35551;BME280;21655;46.056;13.616;2022-09-01T05:41:30;100034.88;;;22.17;72.95
35551;BME280;21655;46.056;13.616;2022-09-01T05:43:57;100037.84;;;22.27;72.48
35551;BME280;21655;46.056;13.616;2022-09-01T05:46:25;100037.88;;;22.32;72.17
35551;BME280;21655;46.056;13.616;2022-09-01T05:48:53;100035.72;;;22.39;73.42
35551;BME280;21655;46.056;13.616;2022-09-01T05:51:24;100042.50;;;22.38;71.45
35551;BME280;21655;46.056;13.616;2022-09-01T05:53:55;100039.53;;;22.28;72.32
35551;BME280;21655;46.056;13.616;2022-09-01T05:56:25;100048.00;;;22.28;72.87
35551;BME280;21655;46.056;13.616;2022-09-01T05:58:52;100053.19;;;22.36;71.72
35551;BME280;21655;46.056;13.616;2022-09-01T06:01:20;100048.75;;;22.40;70.21
35551;BME280;21655;46.056;13.616;2022-09-01T06:03:56;100048.50;;;22.42;70.50
35551;BME280;21655;46.056;13.616;2022-09-01T06:06:28;100060.47;;;22.49;70.10
35551;BME280;21655;46.056;13.616;2022-09-01T06:08:54;100056.56;;;22.55;70.12
35551;BME280;21655;46.056;13.616;2022-09-01T06:11:25;100072.13;;;22.36;70.86
35551;BME280;21655;46.056;13.616;2022-09-01T06:13:52;100058.41;;;22.44;70.35
35551;BME280;21655;46.056;13.616;2022-09-01T06:16:20;100077.53;;;22.59;70.15
35551;BME280;21655;46.056;13.616;2022-09-01T06:18:46;100067.59;;;22.56;70.19
35551;BME280;21655;46.056;13.616;2022-09-01T06:21:12;100063.75;;;22.67;70.33
35551;BME280;21655;46.056;13.616;2022-09-01T06:23:43;100068.25;;;22.63;70.13
35551;BME280;21655;46.056;13.616;2022-09-01T06:26:32;100072.00;;;22.69;69.71
35551;BME280;21655;46.056;13.616;2022-09-01T06:29:02;100075.63;;;22.64;68.66
35551;BME280;21655;46.056;13.616;2022-09-01T06:31:31;100077.09;;;22.45;70.20
35551;BME280;21655;46.056;13.616;2022-09-01T06:34:04;100087.22;;;22.41;69.94
35551;BME280;21655;46.056;13.616;2022-09-01T06:36:31;100074.25;;;22.45;70.52
35551;BME280;21655;46.056;13.616;2022-09-01T06:38:57;100079.72;;;22.52;68.98
35551;BME280;21655;46.056;13.616;2022-09-01T06:41:25;100089.13;;;22.57;70.22
35551;BME280;21655;46.056;13.616;2022-09-01T06:43:51;100094.38;;;22.49;70.06
35551;BME280;21655;46.056;13.616;2022-09-01T06:46:19;100098.97;;;22.55;69.79
35551;BME280;21655;46.056;13.616;2022-09-01T06:48:46;100098.75;;;22.61;69.83
35551;BME280;21655;46.056;13.616;2022-09-01T06:51:17;100093.75;;;22.68;70.18
35551;BME280;21655;46.056;13.616;2022-09-01T06:53:45;100104.25;;;22.73;68.40
35551;BME280;21655;46.056;13.616;2022-09-01T06:56:14;100099.03;;;22.86;67.68
35551;BME280;21655;46.056;13.616;2022-09-01T06:58:42;100092.03;;;22.94;67.32
35551;BME280;21655;46.056;13.616;2022-09-01T07:01:11;100098.25;;;23.17;66.05
35551;BME280;21655;46.056;13.616;2022-09-01T07:03:40;100095.47;;;23.22;65.84
35551;BME280;21655;46.056;13.616;2022-09-01T07:06:06;100101.88;;;23.12;65.87
35551;BME280;21655;46.056;13.616;2022-09-01T07:08:31;100095.00;;;23.30;65.20
35551;BME280;21655;46.056;13.616;2022-09-01T07:11:05;100092.31;;;24.89;59.05
35551;BME280;21655;46.056;13.616;2022-09-01T07:13:32;100083.84;;;26.19;54.59
35551;BME280;21655;46.056;13.616;2022-09-01T07:16:00;100094.91;;;26.30;54.05
35551;BME280;21655;46.056;13.616;2022-09-01T07:18:26;100096.19;;;24.58;58.84
35551;BME280;21655;46.056;13.616;2022-09-01T07:20:53;100093.84;;;25.21;57.22
35551;BME280;21655;46.056;13.616;2022-09-01T07:23:19;100088.09;;;24.97;57.81
35551;BME280;21655;46.056;13.616;2022-09-01T07:25:47;100094.84;;;24.76;58.42
35551;BME280;21655;46.056;13.616;2022-09-01T07:28:15;100088.13;;;28.99;47.54
35551;BME280;21655;46.056;13.616;2022-09-01T07:30:43;100092.06;;;31.21;41.54
35551;BME280;21655;46.056;13.616;2022-09-01T07:33:10;100099.28;;;32.42;38.78
35551;BME280;21655;46.056;13.616;2022-09-01T07:35:38;100098.06;;;33.12;36.93
35551;BME280;21655;46.056;13.616;2022-09-01T07:38:04;100101.44;;;30.73;41.36
35551;BME280;21655;46.056;13.616;2022-09-01T07:40:32;100099.59;;;31.04;41.53
35551;BME280;21655;46.056;13.616;2022-09-01T07:43:14;100118.22;;;29.33;42.87
35551;BME280;21655;46.056;13.616;2022-09-01T07:45:44;100111.84;;;30.23;42.87
35551;BME280;21655;46.056;13.616;2022-09-01T07:48:12;100109.50;;;32.26;37.79
35551;BME280;21655;46.056;13.616;2022-09-01T07:50:41;100109.28;;;32.44;37.46
35551;BME280;21655;46.056;13.616;2022-09-01T07:53:12;100100.81;;;28.17;44.33
35551;BME280;21655;46.056;13.616;2022-09-01T07:55:45;100099.44;;;26.41;49.19
35551;BME280;21655;46.056;13.616;2022-09-01T07:58:16;100108.91;;;26.12;51.21
35551;BME280;21655;46.056;13.616;2022-09-01T08:00:41;100106.63;;;26.04;51.28
35551;BME280;21655;46.056;13.616;2022-09-01T08:03:12;100114.88;;;26.94;48.08
35551;BME280;21655;46.056;13.616;2022-09-01T08:05:38;100110.06;;;28.80;43.81
35551;BME280;21655;46.056;13.616;2022-09-01T08:08:04;100104.53;;;31.74;38.67
35551;BME280;21655;46.056;13.616;2022-09-01T08:10:29;100099.31;;;32.72;35.99
35551;BME280;21655;46.056;13.616;2022-09-01T08:12:55;100085.88;;;31.28;38.01
35551;BME280;21655;46.056;13.616;2022-09-01T08:15:21;100097.50;;;32.02;38.08
35551;BME280;21655;46.056;13.616;2022-09-01T08:17:46;100106.59;;;33.59;34.82
35551;BME280;21655;46.056;13.616;2022-09-01T08:20:12;100110.72;;;30.51;38.34
35551;BME280;21655;46.056;13.616;2022-09-01T08:22:38;100110.00;;;27.81;43.05
35551;BME280;21655;46.056;13.616;2022-09-01T08:25:08;100115.78;;;31.84;37.63
35551;BME280;21655;46.056;13.616;2022-09-01T08:27:35;100101.53;;;30.95;36.81
35551;BME280;21655;46.056;13.616;2022-09-01T08:30:04;100125.09;;;28.90;42.87
35551;BME280;21655;46.056;13.616;2022-09-01T08:32:30;100131.75;;;28.81;43.16
35551;BME280;21655;46.056;13.616;2022-09-01T08:34:56;100129.06;;;29.54;41.36
35551;BME280;21655;46.056;13.616;2022-09-01T08:37:22;100136.09;;;28.26;43.93
35551;BME280;21655;46.056;13.616;2022-09-01T08:39:47;100147.19;;;28.28;44.18
35551;BME280;21655;46.056;13.616;2022-09-01T08:48:30;100158.00;;;27.69;43.72
35551;BME280;21655;46.056;13.616;2022-09-01T08:51:05;100149.69;;;28.86;42.56
35551;BME280;21655;46.056;13.616;2022-09-01T08:53:37;100141.19;;;31.77;38.56
35551;BME280;21655;46.056;13.616;2022-09-01T08:56:08;100141.59;;;32.89;35.81
35551;BME280;21655;46.056;13.616;2022-09-01T08:58:33;100145.78;;;31.16;37.04
35551;BME280;21655;46.056;13.616;2022-09-01T09:01:06;100149.41;;;29.29;40.34
35551;BME280;21655;46.056;13.616;2022-09-01T09:03:47;100147.22;;;30.14;38.11
35551;BME280;21655;46.056;13.616;2022-09-01T09:06:28;100147.56;;;30.85;37.51
35551;BME280;21655;46.056;13.616;2022-09-01T09:08:59;100146.72;;;28.73;40.62
35551;BME280;21655;46.056;13.616;2022-09-01T09:15:02;100148.69;;;28.77;42.13
35551;BME280;21655;46.056;13.616;2022-09-01T09:17:35;100163.25;;;27.52;44.06
35551;BME280;21655;46.056;13.616;2022-09-01T09:20:04;100151.34;;;26.87;46.61
35551;BME280;21655;46.056;13.616;2022-09-01T09:22:31;100152.25;;;26.72;47.45
35551;BME280;21655;46.056;13.616;2022-09-01T09:25:13;100158.06;;;25.82;47.51
35551;BME280;21655;46.056;13.616;2022-09-01T09:27:44;100165.44;;;26.38;47.94
35551;BME280;21655;46.056;13.616;2022-09-01T09:30:22;100155.72;;;27.27;46.47
35551;BME280;21655;46.056;13.616;2022-09-01T09:32:55;100151.03;;;27.41;46.90
35551;BME280;21655;46.056;13.616;2022-09-01T09:35:40;100150.47;;;26.91;46.62
35551;BME280;21655;46.056;13.616;2022-09-01T09:40:36;100134.53;;;27.38;45.84
35551;BME280;21655;46.056;13.616;2022-09-01T09:43:06;100141.47;;;27.27;46.20
35551;BME280;21655;46.056;13.616;2022-09-01T09:48:06;100152.50;;;26.76;46.67
35551;BME280;21655;46.056;13.616;2022-09-01T09:50:36;100143.69;;;26.77;46.98
35551;BME280;21655;46.056;13.616;2022-09-01T09:53:27;100150.53;;;26.76;47.90
35551;BME280;21655;46.056;13.616;2022-09-01T09:55:58;100153.59;;;26.90;45.86
35551;BME280;21655;46.056;13.616;2022-09-01T09:58:36;100144.28;;;26.74;46.81
35551;BME280;21655;46.056;13.616;2022-09-01T10:03:50;100143.66;;;26.82;46.72
35551;BME280;21655;46.056;13.616;2022-09-01T10:06:43;100141.69;;;26.83;47.05
35551;BME280;21655;46.056;13.616;2022-09-01T10:09:36;100137.41;;;26.80;45.99
35551;BME280;21655;46.056;13.616;2022-09-01T10:12:03;100135.84;;;27.08;45.46
35551;BME280;21655;46.056;13.616;2022-09-01T10:14:58;100135.53;;;27.62;45.61
35551;BME280;21655;46.056;13.616;2022-09-01T10:17:31;100133.78;;;28.00;44.04
35551;BME280;21655;46.056;13.616;2022-09-01T10:20:05;100139.19;;;27.68;43.57
35551;BME280;21655;46.056;13.616;2022-09-01T10:22:34;100138.44;;;27.52;44.54
35551;BME280;21655;46.056;13.616;2022-09-01T10:25:00;100144.88;;;27.29;45.38
35551;BME280;21655;46.056;13.616;2022-09-01T10:27:34;100150.41;;;27.06;45.64
35551;BME280;21655;46.056;13.616;2022-09-01T10:30:07;100139.06;;;26.96;45.47
35551;BME280;21655;46.056;13.616;2022-09-01T10:35:30;100136.13;;;27.16;44.92
35551;BME280;21655;46.056;13.616;2022-09-01T10:37:58;100127.63;;;27.06;46.35
35551;BME280;21655;46.056;13.616;2022-09-01T10:42:58;100133.78;;;26.70;45.79
35551;BME280;21655;46.056;13.616;2022-09-01T10:45:36;100140.38;;;26.35;48.04
35551;BME280;21655;46.056;13.616;2022-09-01T10:51:33;100145.56;;;26.08;47.68
35551;BME280;21655;46.056;13.616;2022-09-01T10:59:05;100148.38;;;26.18;46.97
35551;BME280;21655;46.056;13.616;2022-09-01T11:04:09;100143.28;;;26.15;46.58
35551;BME280;21655;46.056;13.616;2022-09-01T11:09:20;100153.78;;;26.25;46.44
35551;BME280;21655;46.056;13.616;2022-09-01T11:11:54;100147.22;;;26.34;47.07
35551;BME280;21655;46.056;13.616;2022-09-01T11:14:26;100149.50;;;26.32;47.02
35551;BME280;21655;46.056;13.616;2022-09-01T11:17:12;100148.63;;;26.37;46.70
35551;BME280;21655;46.056;13.616;2022-09-01T11:19:42;100158.31;;;26.36;47.49
35551;BME280;21655;46.056;13.616;2022-09-01T11:27:03;100163.41;;;26.39;47.51
35551;BME280;21655;46.056;13.616;2022-09-01T11:29:52;100154.28;;;26.67;47.24
35551;BME280;21655;46.056;13.616;2022-09-01T11:32:21;100159.94;;;26.72;46.56
35551;BME280;21655;46.056;13.616;2022-09-01T11:34:50;100162.41;;;26.93;45.88
35551;BME280;21655;46.056;13.616;2022-09-01T11:37:20;100154.38;;;27.10;45.71
35551;BME280;21655;46.056;13.616;2022-09-01T11:39:50;100154.25;;;27.30;44.04
35551;BME280;21655;46.056;13.616;2022-09-01T11:44:46;100153.34;;;27.39;44.59
35551;BME280;21655;46.056;13.616;2022-09-01T11:50:03;100145.13;;;28.38;42.91
35551;BME280;21655;46.056;13.616;2022-09-01T11:52:35;100143.59;;;28.46;43.79
35551;BME280;21655;46.056;13.616;2022-09-01T11:55:04;100145.34;;;27.85;42.82
35551;BME280;21655;46.056;13.616;2022-09-01T12:00:00;100148.41;;;28.22;44.10
35551;BME280;21655;46.056;13.616;2022-09-01T12:02:29;100145.38;;;29.30;41.14
35551;BME280;21655;46.056;13.616;2022-09-01T12:04:59;100154.78;;;30.23;39.10
35551;BME280;21655;46.056;13.616;2022-09-01T12:07:43;100153.34;;;31.60;38.27
35551;BME280;21655;46.056;13.616;2022-09-01T12:10:30;100150.22;;;30.95;37.90
35551;BME280;21655;46.056;13.616;2022-09-01T12:13:17;100145.72;;;30.48;38.78
35551;BME280;21655;46.056;13.616;2022-09-01T12:15:55;100151.13;;;30.04;38.48
35551;BME280;21655;46.056;13.616;2022-09-01T12:18:23;100149.84;;;29.60;39.92
35551;BME280;21655;46.056;13.616;2022-09-01T12:20:53;100146.88;;;29.46;40.75
35551;BME280;21655;46.056;13.616;2022-09-01T12:26:02;100148.84;;;28.86;40.93
35551;BME280;21655;46.056;13.616;2022-09-01T12:28:30;100141.22;;;29.41;40.78
35551;BME280;21655;46.056;13.616;2022-09-01T12:30:59;100156.66;;;29.04;39.93
35551;BME280;21655;46.056;13.616;2022-09-01T12:33:26;100148.13;;;28.99;39.58
35551;BME280;21655;46.056;13.616;2022-09-01T12:36:14;100157.78;;;28.27;42.15
35551;BME280;21655;46.056;13.616;2022-09-01T12:38:41;100150.41;;;28.50;40.59
35551;BME280;21655;46.056;13.616;2022-09-01T12:41:34;100157.31;;;28.15;41.59
35551;BME280;21655;46.056;13.616;2022-09-01T12:44:52;100156.44;;;28.20;41.75
35551;BME280;21655;46.056;13.616;2022-09-01T12:50:00;100153.66;;;26.80;43.98
35551;BME280;21655;46.056;13.616;2022-09-01T12:52:27;100150.13;;;27.03;44.38
35551;BME280;21655;46.056;13.616;2022-09-01T12:57:36;100153.66;;;26.75;43.28
35551;BME280;21655;46.056;13.616;2022-09-01T13:00:21;100142.69;;;27.07;42.30
35551;BME280;21655;46.056;13.616;2022-09-01T13:03:07;100131.25;;;27.21;41.82
35551;BME280;21655;46.056;13.616;2022-09-01T13:05:36;100136.28;;;27.34;42.04
35551;BME280;21655;46.056;13.616;2022-09-01T13:08:17;100136.16;;;27.06;42.14
35551;BME280;21655;46.056;13.616;2022-09-01T13:13:16;100133.88;;;27.08;41.57
35551;BME280;21655;46.056;13.616;2022-09-01T13:15:46;100138.97;;;27.16;41.69
35551;BME280;21655;46.056;13.616;2022-09-01T13:18:18;100126.69;;;27.20;41.97
35551;BME280;21655;46.056;13.616;2022-09-01T13:20:44;100136.78;;;26.93;41.18
35551;BME280;21655;46.056;13.616;2022-09-01T13:23:09;100138.56;;;26.79;42.32
35551;BME280;21655;46.056;13.616;2022-09-01T13:25:37;100143.13;;;26.75;42.30
35551;BME280;21655;46.056;13.616;2022-09-01T13:28:04;100140.69;;;27.12;41.96
35551;BME280;21655;46.056;13.616;2022-09-01T13:30:32;100130.66;;;26.61;41.96
35551;BME280;21655;46.056;13.616;2022-09-01T13:32:59;100122.97;;;26.67;42.09
35551;BME280;21655;46.056;13.616;2022-09-01T13:35:24;100130.66;;;26.66;42.35
35551;BME280;21655;46.056;13.616;2022-09-01T13:37:50;100128.28;;;26.83;42.05
35551;BME280;21655;46.056;13.616;2022-09-01T13:40:17;100124.28;;;26.89;42.51
35551;BME280;21655;46.056;13.616;2022-09-01T13:42:45;100130.47;;;27.01;42.82
35551;BME280;21655;46.056;13.616;2022-09-01T13:45:12;100110.16;;;27.22;42.21
35551;BME280;21655;46.056;13.616;2022-09-01T13:47:41;100124.34;;;26.79;41.53
35551;BME280;21655;46.056;13.616;2022-09-01T13:50:08;100126.41;;;26.59;42.06
35551;BME280;21655;46.056;13.616;2022-09-01T13:52:35;100116.81;;;27.03;41.71
35551;BME280;21655;46.056;13.616;2022-09-01T13:55:01;100123.25;;;27.23;42.05
35551;BME280;21655;46.056;13.616;2022-09-01T13:57:27;100107.53;;;27.36;41.57